sensor_id;sensor_type;location;lat;lon;timestamp;temperature;humidity
52731;DHT22;38624;53.242;6.974;2023-03-23T00:01:04;10.00;99.90
52731;DHT22;38624;53.242;6.974;2023-03-23T00:03:30;10.00;99.90
52731;DHT22;38624;53.242;6.974;2023-03-23T00:05:58;10.00;99.90
52731;DHT22;38624;53.242;6.974;2023-03-23T00:08:33;10.00;99.90
52731;DHT22;38624;53.242;6.974;2023-03-23T00:10:59;10.00;99.90
52731;DHT22;38624;53.242;6.974;2023-03-23T00:13:28;10.00;99.90
52731;DHT22;38624;53.242;6.974;2023-03-23T00:15:53;10.10;99.90
52731;DHT22;38624;53.242;6.974;2023-03-23T00:18:20;10.10;99.90
52731;DHT22;38624;53.242;6.974;2023-03-23T00:20:50;10.00;99.90
52731;DHT22;38624;53.242;6.974;2023-03-23T00:23:17;10.00;99.90
52731;DHT22;38624;53.242;6.974;2023-03-23T00:25:48;10.00;99.90
52731;DHT22;38624;53.242;6.974;2023-03-23T00:28:15;10.00;99.90
52731;DHT22;38624;53.242;6.974;2023-03-23T00:30:41;10.10;99.90
52731;DHT22;38624;53.242;6.974;2023-03-23T00:33:08;10.10;99.90
52731;DHT22;38624;53.242;6.974;2023-03-23T00:35:39;10.10;99.90
52731;DHT22;38624;53.242;6.974;2023-03-23T00:38:05;10.00;99.90
52731;DHT22;38624;53.242;6.974;2023-03-23T00:40:31;10.10;99.90
52731;DHT22;38624;53.242;6.974;2023-03-23T00:43:01;10.10;99.90
52731;DHT22;38624;53.242;6.974;2023-03-23T00:45:29;10.10;99.90
52731;DHT22;38624;53.242;6.974;2023-03-23T00:47:55;10.10;99.90
52731;DHT22;38624;53.242;6.974;2023-03-23T00:50:22;10.10;99.90
52731;DHT22;38624;53.242;6.974;2023-03-23T00:52:47;10.10;99.90
52731;DHT22;38624;53.242;6.974;2023-03-23T00:55:17;10.10;99.90
52731;DHT22;38624;53.242;6.974;2023-03-23T00:57:43;10.10;99.90
52731;DHT22;38624;53.242;6.974;2023-03-23T01:00:09;10.10;99.90
52731;DHT22;38624;53.242;6.974;2023-03-23T01:02:36;10.10;99.90
52731;DHT22;38624;53.242;6.974;2023-03-23T01:05:02;10.10;99.90
52731;DHT22;38624;53.242;6.974;2023-03-23T01:07:29;10.10;99.90
52731;DHT22;38624;53.242;6.974;2023-03-23T01:09:57;10.10;99.90
52731;DHT22;38624;53.242;6.974;2023-03-23T01:12:23;10.10;99.90
52731;DHT22;38624;53.242;6.974;2023-03-23T01:14:50;10.10;99.90
52731;DHT22;38624;53.242;6.974;2023-03-23T01:17:16;10.10;99.90
52731;DHT22;38624;53.242;6.974;2023-03-23T01:19:42;10.10;99.90
52731;DHT22;38624;53.242;6.974;2023-03-23T01:22:08;10.00;99.90
52731;DHT22;38624;53.242;6.974;2023-03-23T01:24:33;10.00;99.90
52731;DHT22;38624;53.242;6.974;2023-03-23T01:26:59;9.90;99.90
52731;DHT22;38624;53.242;6.974;2023-03-23T01:29:32;9.90;99.90
52731;DHT22;38624;53.242;6.974;2023-03-23T01:31:58;9.70;99.90
52731;DHT22;38624;53.242;6.974;2023-03-23T01:34:24;9.60;99.90
52731;DHT22;38624;53.242;6.974;2023-03-23T01:36:50;9.40;99.90
52731;DHT22;38624;53.242;6.974;2023-03-23T01:39:16;9.30;99.90
52731;DHT22;38624;53.242;6.974;2023-03-23T01:41:41;9.20;99.90
52731;DHT22;38624;53.242;6.974;2023-03-23T01:46:44;9.10;99.90
52731;DHT22;38624;53.242;6.974;2023-03-23T01:49:16;9.10;99.90
52731;DHT22;38624;53.242;6.974;2023-03-23T01:51:49;9.10;99.90
52731;DHT22;38624;53.242;6.974;2023-03-23T01:54:19;9.20;99.90
52731;DHT22;38624;53.242;6.974;2023-03-23T01:57:16;9.30;99.90
52731;DHT22;38624;53.242;6.974;2023-03-23T01:59:45;9.40;99.90
52731;DHT22;38624;53.242;6.974;2023-03-23T02:02:12;9.50;99.90
52731;DHT22;38624;53.242;6.974;2023-03-23T02:04:37;9.40;99.90
52731;DHT22;38624;53.242;6.974;2023-03-23T02:07:04;9.50;99.90
52731;DHT22;38624;53.242;6.974;2023-03-23T02:09:31;9.60;99.90
52731;DHT22;38624;53.242;6.974;2023-03-23T02:11:57;9.70;99.90
52731;DHT22;38624;53.242;6.974;2023-03-23T02:14:24;9.70;99.90
52731;DHT22;38624;53.242;6.974;2023-03-23T02:16:59;9.70;99.90
52731;DHT22;38624;53.242;6.974;2023-03-23T02:36:58;9.70;99.90
52731;DHT22;38624;53.242;6.974;2023-03-23T02:41:57;9.70;99.90
52731;DHT22;38624;53.242;6.974;2023-03-23T02:44:27;9.70;99.90
52731;DHT22;38624;53.242;6.974;2023-03-23T02:46:57;9.70;99.90
52731;DHT22;38624;53.242;6.974;2023-03-23T02:49:24;9.70;99.90
52731;DHT22;38624;53.242;6.974;2023-03-23T02:51:51;9.70;99.90
52731;DHT22;38624;53.242;6.974;2023-03-23T02:54:20;9.70;99.90
52731;DHT22;38624;53.242;6.974;2023-03-23T02:56:48;9.70;99.90
52731;DHT22;38624;53.242;6.974;2023-03-23T02:59:16;9.70;99.90
52731;DHT22;38624;53.242;6.974;2023-03-23T03:04:11;9.70;99.90
52731;DHT22;38624;53.242;6.974;2023-03-23T03:07:10;9.60;99.90
52731;DHT22;38624;53.242;6.974;2023-03-23T03:09:55;9.60;99.90
52731;DHT22;38624;53.242;6.974;2023-03-23T03:12:36;9.60;99.90
52731;DHT22;38624;53.242;6.974;2023-03-23T03:18:06;9.60;99.90
52731;DHT22;38624;53.242;6.974;2023-03-23T03:20:36;9.60;99.90
52731;DHT22;38624;53.242;6.974;2023-03-23T03:23:04;9.60;99.90
52731;DHT22;38624;53.242;6.974;2023-03-23T03:25:33;9.60;99.90
52731;DHT22;38624;53.242;6.974;2023-03-23T03:28:00;9.60;99.90
52731;DHT22;38624;53.242;6.974;2023-03-23T03:30:30;9.60;99.90
52731;DHT22;38624;53.242;6.974;2023-03-23T03:32:58;9.60;99.90
52731;DHT22;38624;53.242;6.974;2023-03-23T03:35:26;9.60;99.90
52731;DHT22;38624;53.242;6.974;2023-03-23T03:37:52;9.60;99.90
52731;DHT22;38624;53.242;6.974;2023-03-23T03:40:20;9.60;99.90
52731;DHT22;38624;53.242;6.974;2023-03-23T03:42:47;9.60;99.90
52731;DHT22;38624;53.242;6.974;2023-03-23T03:45:15;9.60;99.90
52731;DHT22;38624;53.242;6.974;2023-03-23T03:47:41;9.60;99.90
52731;DHT22;38624;53.242;6.974;2023-03-23T03:50:08;9.60;99.90
52731;DHT22;38624;53.242;6.974;2023-03-23T03:52:34;9.60;99.90
52731;DHT22;38624;53.242;6.974;2023-03-23T03:55:00;9.60;99.90
52731;DHT22;38624;53.242;6.974;2023-03-23T03:57:26;9.60;99.90
52731;DHT22;38624;53.242;6.974;2023-03-23T03:59:52;9.60;99.90
52731;DHT22;38624;53.242;6.974;2023-03-23T04:02:18;9.60;99.90
52731;DHT22;38624;53.242;6.974;2023-03-23T04:04:47;9.70;99.90
52731;DHT22;38624;53.242;6.974;2023-03-23T04:07:13;9.60;99.90
52731;DHT22;38624;53.242;6.974;2023-03-23T04:09:42;9.70;99.90
52731;DHT22;38624;53.242;6.974;2023-03-23T04:12:09;9.60;99.90
52731;DHT22;38624;53.242;6.974;2023-03-23T04:14:34;9.50;99.90
52731;DHT22;38624;53.242;6.974;2023-03-23T04:17:00;9.60;99.90
52731;DHT22;38624;53.242;6.974;2023-03-23T04:19:26;9.50;99.90
52731;DHT22;38624;53.242;6.974;2023-03-23T04:21:54;9.50;99.90
52731;DHT22;38624;53.242;6.974;2023-03-23T04:24:21;9.50;99.90
52731;DHT22;38624;53.242;6.974;2023-03-23T04:26:49;9.50;99.90
52731;DHT22;38624;53.242;6.974;2023-03-23T04:29:17;9.60;99.90
52731;DHT22;38624;53.242;6.974;2023-03-23T04:31:45;9.50;99.90
52731;DHT22;38624;53.242;6.974;2023-03-23T04:34:11;9.50;99.90
52731;DHT22;38624;53.242;6.974;2023-03-23T04:36:40;9.60;99.90
52731;DHT22;38624;53.242;6.974;2023-03-23T04:39:07;9.60;99.90
52731;DHT22;38624;53.242;6.974;2023-03-23T04:41:36;9.50;99.90
52731;DHT22;38624;53.242;6.974;2023-03-23T04:44:02;9.60;99.90
52731;DHT22;38624;53.242;6.974;2023-03-23T04:46:28;9.60;99.90
52731;DHT22;38624;53.242;6.974;2023-03-23T04:48:54;9.50;99.90
52731;DHT22;38624;53.242;6.974;2023-03-23T04:51:20;9.50;99.90
52731;DHT22;38624;53.242;6.974;2023-03-23T04:53:46;7.60;99.90
52731;DHT22;38624;53.242;6.974;2023-03-23T04:56:11;7.60;99.90
52731;DHT22;38624;53.242;6.974;2023-03-23T04:58:39;8.50;99.90
52731;DHT22;38624;53.242;6.974;2023-03-23T05:01:06;7.70;99.90
52731;DHT22;38624;53.242;6.974;2023-03-23T05:03:32;8.50;99.90
52731;DHT22;38624;53.242;6.974;2023-03-23T05:05:57;8.80;99.90
52731;DHT22;38624;53.242;6.974;2023-03-23T05:08:26;8.90;99.90
52731;DHT22;38624;53.242;6.974;2023-03-23T05:10:57;8.60;99.90
52731;DHT22;38624;53.242;6.974;2023-03-23T05:13:23;8.50;99.90
52731;DHT22;38624;53.242;6.974;2023-03-23T05:15:49;8.70;99.90
52731;DHT22;38624;53.242;6.974;2023-03-23T05:18:15;8.60;99.90
52731;DHT22;38624;53.242;6.974;2023-03-23T05:20:42;8.50;99.90
52731;DHT22;38624;53.242;6.974;2023-03-23T05:23:08;8.50;99.90
52731;DHT22;38624;53.242;6.974;2023-03-23T05:25:35;8.60;99.90
52731;DHT22;38624;53.242;6.974;2023-03-23T05:28:03;8.70;99.90
52731;DHT22;38624;53.242;6.974;2023-03-23T05:30:28;8.90;99.90
52731;DHT22;38624;53.242;6.974;2023-03-23T05:32:55;8.80;99.90
52731;DHT22;38624;53.242;6.974;2023-03-23T05:35:21;8.80;99.90
52731;DHT22;38624;53.242;6.974;2023-03-23T05:37:47;8.80;99.90
52731;DHT22;38624;53.242;6.974;2023-03-23T05:40:13;8.90;99.90
52731;DHT22;38624;53.242;6.974;2023-03-23T05:42:39;9.00;99.90
52731;DHT22;38624;53.242;6.974;2023-03-23T05:45:07;8.90;99.90
52731;DHT22;38624;53.242;6.974;2023-03-23T05:47:34;8.90;99.90
52731;DHT22;38624;53.242;6.974;2023-03-23T05:50:00;9.10;99.90
52731;DHT22;38624;53.242;6.974;2023-03-23T05:52:26;9.00;99.90
52731;DHT22;38624;53.242;6.974;2023-03-23T05:54:52;9.10;99.90
52731;DHT22;38624;53.242;6.974;2023-03-23T05:57:19;9.20;99.90
52731;DHT22;38624;53.242;6.974;2023-03-23T05:59:48;9.10;99.90
52731;DHT22;38624;53.242;6.974;2023-03-23T06:02:14;9.20;99.90
52731;DHT22;38624;53.242;6.974;2023-03-23T06:04:40;9.00;99.90
52731;DHT22;38624;53.242;6.974;2023-03-23T06:07:07;9.00;99.90
52731;DHT22;38624;53.242;6.974;2023-03-23T06:09:38;9.10;99.90
52731;DHT22;38624;53.242;6.974;2023-03-23T06:12:04;9.00;99.90
52731;DHT22;38624;53.242;6.974;2023-03-23T06:14:30;9.00;99.90
52731;DHT22;38624;53.242;6.974;2023-03-23T06:16:56;8.90;99.90
52731;DHT22;38624;53.242;6.974;2023-03-23T06:19:22;9.10;99.90
52731;DHT22;38624;53.242;6.974;2023-03-23T06:21:48;9.00;99.90
52731;DHT22;38624;53.242;6.974;2023-03-23T06:24:14;9.00;99.90
52731;DHT22;38624;53.242;6.974;2023-03-23T06:26:40;9.00;99.90
52731;DHT22;38624;53.242;6.974;2023-03-23T06:29:09;9.10;99.90
52731;DHT22;38624;53.242;6.974;2023-03-23T06:31:44;8.90;99.90
52731;DHT22;38624;53.242;6.974;2023-03-23T06:34:11;10.40;99.90
52731;DHT22;38624;53.242;6.974;2023-03-23T06:36:37;9.20;99.90
52731;DHT22;38624;53.242;6.974;2023-03-23T06:39:04;9.00;99.90
52731;DHT22;38624;53.242;6.974;2023-03-23T06:41:33;9.10;99.90
52731;DHT22;38624;53.242;6.974;2023-03-23T06:44:00;9.00;99.90
52731;DHT22;38624;53.242;6.974;2023-03-23T06:46:26;9.10;99.90
52731;DHT22;38624;53.242;6.974;2023-03-23T06:48:52;9.20;99.90
52731;DHT22;38624;53.242;6.974;2023-03-23T06:51:18;9.00;99.90
52731;DHT22;38624;53.242;6.974;2023-03-23T06:53:44;9.10;99.90
52731;DHT22;38624;53.242;6.974;2023-03-23T06:56:10;9.20;99.90
52731;DHT22;38624;53.242;6.974;2023-03-23T06:58:38;9.50;99.90
52731;DHT22;38624;53.242;6.974;2023-03-23T07:01:05;9.20;99.90
52731;DHT22;38624;53.242;6.974;2023-03-23T07:03:31;9.10;99.90
52731;DHT22;38624;53.242;6.974;2023-03-23T07:05:57;9.10;99.90
52731;DHT22;38624;53.242;6.974;2023-03-23T07:08:23;8.90;99.90
52731;DHT22;38624;53.242;6.974;2023-03-23T07:10:54;8.60;99.90
52731;DHT22;38624;53.242;6.974;2023-03-23T07:13:21;7.90;99.90
52731;DHT22;38624;53.242;6.974;2023-03-23T07:15:47;7.90;99.90
52731;DHT22;38624;53.242;6.974;2023-03-23T07:18:14;8.00;99.90
52731;DHT22;38624;53.242;6.974;2023-03-23T07:20:39;8.00;99.90
52731;DHT22;38624;53.242;6.974;2023-03-23T07:23:06;8.20;99.90
52731;DHT22;38624;53.242;6.974;2023-03-23T07:25:32;8.20;99.90
52731;DHT22;38624;53.242;6.974;2023-03-23T07:27:59;8.10;99.90
52731;DHT22;38624;53.242;6.974;2023-03-23T07:30:26;8.00;99.90
52731;DHT22;38624;53.242;6.974;2023-03-23T07:32:52;8.10;99.90
52731;DHT22;38624;53.242;6.974;2023-03-23T07:35:18;8.00;99.90
52731;DHT22;38624;53.242;6.974;2023-03-23T07:37:44;8.00;99.90
52731;DHT22;38624;53.242;6.974;2023-03-23T07:40:11;8.30;99.90
52731;DHT22;38624;53.242;6.974;2023-03-23T07:42:45;8.10;99.90
52731;DHT22;38624;53.242;6.974;2023-03-23T07:45:12;8.20;99.90
52731;DHT22;38624;53.242;6.974;2023-03-23T07:47:39;8.30;99.90
52731;DHT22;38624;53.242;6.974;2023-03-23T07:50:06;8.50;99.90
52731;DHT22;38624;53.242;6.974;2023-03-23T07:52:33;8.70;99.90
52731;DHT22;38624;53.242;6.974;2023-03-23T07:54:59;9.00;99.90
52731;DHT22;38624;53.242;6.974;2023-03-23T07:57:28;9.30;99.90
52731;DHT22;38624;53.242;6.974;2023-03-23T07:59:54;9.10;99.90
52731;DHT22;38624;53.242;6.974;2023-03-23T08:02:21;9.20;99.90
52731;DHT22;38624;53.242;6.974;2023-03-23T08:04:46;9.20;99.90
52731;DHT22;38624;53.242;6.974;2023-03-23T08:07:13;9.40;99.90
52731;DHT22;38624;53.242;6.974;2023-03-23T08:09:42;9.50;99.90
52731;DHT22;38624;53.242;6.974;2023-03-23T08:12:07;9.30;99.90
52731;DHT22;38624;53.242;6.974;2023-03-23T08:14:33;10.00;99.90
52731;DHT22;38624;53.242;6.974;2023-03-23T08:16:59;9.40;99.90
52731;DHT22;38624;53.242;6.974;2023-03-23T08:19:25;9.50;99.90
52731;DHT22;38624;53.242;6.974;2023-03-23T08:21:52;9.60;99.90
52731;DHT22;38624;53.242;6.974;2023-03-23T08:24:17;9.70;99.90
52731;DHT22;38624;53.242;6.974;2023-03-23T08:26:44;9.70;99.90
52731;DHT22;38624;53.242;6.974;2023-03-23T08:29:10;9.50;99.90
52731;DHT22;38624;53.242;6.974;2023-03-23T08:31:38;9.70;99.90
52731;DHT22;38624;53.242;6.974;2023-03-23T08:34:04;9.60;99.90
52731;DHT22;38624;53.242;6.974;2023-03-23T08:36:32;9.70;99.90
52731;DHT22;38624;53.242;6.974;2023-03-23T08:38:58;9.70;99.90
52731;DHT22;38624;53.242;6.974;2023-03-23T08:41:24;9.80;99.90
52731;DHT22;38624;53.242;6.974;2023-03-23T08:43:50;9.80;99.90
52731;DHT22;38624;53.242;6.974;2023-03-23T08:46:18;10.00;99.90
52731;DHT22;38624;53.242;6.974;2023-03-23T08:48:45;10.00;99.90
52731;DHT22;38624;53.242;6.974;2023-03-23T08:51:12;10.00;99.90
52731;DHT22;38624;53.242;6.974;2023-03-23T08:53:38;9.70;99.90
52731;DHT22;38624;53.242;6.974;2023-03-23T08:56:05;9.70;99.90
52731;DHT22;38624;53.242;6.974;2023-03-23T08:58:32;9.80;99.90
52731;DHT22;38624;53.242;6.974;2023-03-23T09:00:58;9.60;99.90
52731;DHT22;38624;53.242;6.974;2023-03-23T09:03:25;9.60;99.90
52731;DHT22;38624;53.242;6.974;2023-03-23T09:05:51;9.60;99.90
52731;DHT22;38624;53.242;6.974;2023-03-23T09:08:17;9.70;99.90
52731;DHT22;38624;53.242;6.974;2023-03-23T09:10:43;10.00;99.90
52731;DHT22;38624;53.242;6.974;2023-03-23T09:13:08;9.80;99.90
52731;DHT22;38624;53.242;6.974;2023-03-23T09:15:34;10.20;99.90
52731;DHT22;38624;53.242;6.974;2023-03-23T09:18:00;10.40;99.90
52731;DHT22;38624;53.242;6.974;2023-03-23T09:20:27;10.70;99.90
52731;DHT22;38624;53.242;6.974;2023-03-23T09:22:55;10.70;99.90
52731;DHT22;38624;53.242;6.974;2023-03-23T09:25:23;10.50;99.90
52731;DHT22;38624;53.242;6.974;2023-03-23T09:27:56;10.80;99.90
52731;DHT22;38624;53.242;6.974;2023-03-23T09:30:25;10.90;99.90
52731;DHT22;38624;53.242;6.974;2023-03-23T09:32:52;10.80;99.90
52731;DHT22;38624;53.242;6.974;2023-03-23T09:35:18;10.80;99.90
52731;DHT22;38624;53.242;6.974;2023-03-23T09:37:48;10.80;99.90
52731;DHT22;38624;53.242;6.974;2023-03-23T09:40:15;10.70;99.90
52731;DHT22;38624;53.242;6.974;2023-03-23T09:45:28;10.60;99.90
52731;DHT22;38624;53.242;6.974;2023-03-23T09:50:50;10.70;99.90
52731;DHT22;38624;53.242;6.974;2023-03-23T09:53:37;10.70;99.90
52731;DHT22;38624;53.242;6.974;2023-03-23T09:56:10;10.70;99.90
52731;DHT22;38624;53.242;6.974;2023-03-23T10:01:26;11.30;99.90
52731;DHT22;38624;53.242;6.974;2023-03-23T10:04:02;11.40;99.90
52731;DHT22;38624;53.242;6.974;2023-03-23T10:06:29;11.60;99.90
52731;DHT22;38624;53.242;6.974;2023-03-23T10:08:57;11.50;99.90
52731;DHT22;38624;53.242;6.974;2023-03-23T10:14:24;11.50;99.90
52731;DHT22;38624;53.242;6.974;2023-03-23T10:16:56;11.30;99.90
52731;DHT22;38624;53.242;6.974;2023-03-23T10:19:34;10.90;99.90
52731;DHT22;38624;53.242;6.974;2023-03-23T10:22:09;10.80;99.90
52731;DHT22;38624;53.242;6.974;2023-03-23T10:24:43;10.90;99.90
52731;DHT22;38624;53.242;6.974;2023-03-23T10:35:37;10.70;99.90
52731;DHT22;38624;53.242;6.974;2023-03-23T10:38:10;10.80;99.90
52731;DHT22;38624;53.242;6.974;2023-03-23T10:40:47;10.80;99.90
52731;DHT22;38624;53.242;6.974;2023-03-23T10:43:13;10.80;99.90
52731;DHT22;38624;53.242;6.974;2023-03-23T10:45:40;10.80;99.90
52731;DHT22;38624;53.242;6.974;2023-03-23T10:48:18;11.00;99.90
52731;DHT22;38624;53.242;6.974;2023-03-23T10:50:49;11.40;99.90
52731;DHT22;38624;53.242;6.974;2023-03-23T10:53:23;11.60;99.90
52731;DHT22;38624;53.242;6.974;2023-03-23T10:55:49;11.80;99.90
52731;DHT22;38624;53.242;6.974;2023-03-23T10:58:29;13.10;99.90
52731;DHT22;38624;53.242;6.974;2023-03-23T11:00:55;14.30;99.90
52731;DHT22;38624;53.242;6.974;2023-03-23T11:06:22;16.00;99.90
52731;DHT22;38624;53.242;6.974;2023-03-23T11:08:54;16.40;99.90
52731;DHT22;38624;53.242;6.974;2023-03-23T11:11:32;17.40;99.90
52731;DHT22;38624;53.242;6.974;2023-03-23T11:14:47;17.90;99.90
52731;DHT22;38624;53.242;6.974;2023-03-23T11:16:54;18.60;99.90
52731;DHT22;38624;53.242;6.974;2023-03-23T11:19:29;18.70;99.90
52731;DHT22;38624;53.242;6.974;2023-03-23T11:24:47;19.50;99.90
52731;DHT22;38624;53.242;6.974;2023-03-23T11:27:14;18.80;99.90
52731;DHT22;38624;53.242;6.974;2023-03-23T11:29:54;18.90;99.90
52731;DHT22;38624;53.242;6.974;2023-03-23T11:32:27;19.40;99.90
52731;DHT22;38624;53.242;6.974;2023-03-23T11:35:01;18.30;99.90
52731;DHT22;38624;53.242;6.974;2023-03-23T11:37:41;18.50;99.90
52731;DHT22;38624;53.242;6.974;2023-03-23T11:42:42;20.30;99.90
52731;DHT22;38624;53.242;6.974;2023-03-23T11:45:35;20.70;99.90
52731;DHT22;38624;53.242;6.974;2023-03-23T11:53:28;15.60;99.90
52731;DHT22;38624;53.242;6.974;2023-03-23T11:58:44;14.10;99.90
52731;DHT22;38624;53.242;6.974;2023-03-23T12:15:29;15.10;99.90
52731;DHT22;38624;53.242;6.974;2023-03-23T12:21:40;15.80;99.90
52731;DHT22;38624;53.242;6.974;2023-03-23T12:26:26;15.80;99.90
52731;DHT22;38624;53.242;6.974;2023-03-23T12:34:53;17.70;99.90
52731;DHT22;38624;53.242;6.974;2023-03-23T12:48:29;19.20;99.90
52731;DHT22;38624;53.242;6.974;2023-03-23T12:53:58;17.00;99.90
52731;DHT22;38624;53.242;6.974;2023-03-23T12:56:34;16.30;99.90
52731;DHT22;38624;53.242;6.974;2023-03-23T12:59:14;17.70;99.90
52731;DHT22;38624;53.242;6.974;2023-03-23T13:01:46;18.20;99.90
52731;DHT22;38624;53.242;6.974;2023-03-23T13:04:17;18.30;99.90
52731;DHT22;38624;53.242;6.974;2023-03-23T13:06:46;18.20;99.90
52731;DHT22;38624;53.242;6.974;2023-03-23T13:12:03;18.10;99.90
52731;DHT22;38624;53.242;6.974;2023-03-23T13:14:59;17.40;99.90
52731;DHT22;38624;53.242;6.974;2023-03-23T13:23:05;16.50;99.90
52731;DHT22;38624;53.242;6.974;2023-03-23T13:25:43;16.80;99.90
52731;DHT22;38624;53.242;6.974;2023-03-23T13:28:19;16.60;99.90
52731;DHT22;38624;53.242;6.974;2023-03-23T13:31:03;16.00;99.90
52731;DHT22;38624;53.242;6.974;2023-03-23T13:33:35;15.80;99.90
52731;DHT22;38624;53.242;6.974;2023-03-23T13:36:09;15.40;99.90
52731;DHT22;38624;53.242;6.974;2023-03-23T13:38:36;14.80;99.90
52731;DHT22;38624;53.242;6.974;2023-03-23T13:41:11;14.80;99.90
52731;DHT22;38624;53.242;6.974;2023-03-23T13:43:40;15.00;99.90
52731;DHT22;38624;53.242;6.974;2023-03-23T13:46:27;14.90;99.90
52731;DHT22;38624;53.242;6.974;2023-03-23T13:51:36;15.60;99.90
52731;DHT22;38624;53.242;6.974;2023-03-23T13:57:01;15.90;99.90
52731;DHT22;38624;53.242;6.974;2023-03-23T14:02:21;17.70;99.90
52731;DHT22;38624;53.242;6.974;2023-03-23T14:04:44;17.10;99.90
52731;DHT22;38624;53.242;6.974;2023-03-23T14:07:15;15.90;99.90
52731;DHT22;38624;53.242;6.974;2023-03-23T14:09:44;15.50;99.90
52731;DHT22;38624;53.242;6.974;2023-03-23T14:14:50;15.60;99.90
52731;DHT22;38624;53.242;6.974;2023-03-23T14:17:19;16.50;99.90
52731;DHT22;38624;53.242;6.974;2023-03-23T14:19:49;16.60;99.90
52731;DHT22;38624;53.242;6.974;2023-03-23T14:25:00;15.60;99.90
52731;DHT22;38624;53.242;6.974;2023-03-23T14:27:27;15.20;99.90
52731;DHT22;38624;53.242;6.974;2023-03-23T14:30:00;15.00;99.90
52731;DHT22;38624;53.242;6.974;2023-03-23T14:32:29;14.50;99.90
52731;DHT22;38624;53.242;6.974;2023-03-23T14:34:56;15.10;99.90
52731;DHT22;38624;53.242;6.974;2023-03-23T14:37:23;15.40;99.90
52731;DHT22;38624;53.242;6.974;2023-03-23T14:39:51;15.60;99.90
52731;DHT22;38624;53.242;6.974;2023-03-23T14:42:26;15.70;99.90
52731;DHT22;38624;53.242;6.974;2023-03-23T14:44:53;15.90;99.90
52731;DHT22;38624;53.242;6.974;2023-03-23T14:47:29;16.10;99.90
52731;DHT22;38624;53.242;6.974;2023-03-23T14:50:04;16.20;99.90
52731;DHT22;38624;53.242;6.974;2023-03-23T14:52:36;16.20;99.90
52731;DHT22;38624;53.242;6.974;2023-03-23T14:55:14;16.30;99.90
52731;DHT22;38624;53.242;6.974;2023-03-23T14:57:41;16.10;99.90
52731;DHT22;38624;53.242;6.974;2023-03-23T15:02:49;17.00;99.90
52731;DHT22;38624;53.242;6.974;2023-03-23T15:05:20;16.70;99.90
52731;DHT22;38624;53.242;6.974;2023-03-23T15:07:51;17.00;99.90
52731;DHT22;38624;53.242;6.974;2023-03-23T15:10:19;17.10;99.90
52731;DHT22;38624;53.242;6.974;2023-03-23T15:12:48;16.90;99.90
52731;DHT22;38624;53.242;6.974;2023-03-23T15:15:29;17.30;99.90
52731;DHT22;38624;53.242;6.974;2023-03-23T15:17:56;17.40;99.90
52731;DHT22;38624;53.242;6.974;2023-03-23T15:20:32;17.60;99.90
52731;DHT22;38624;53.242;6.974;2023-03-23T15:23:15;18.10;99.90
52731;DHT22;38624;53.242;6.974;2023-03-23T15:25:51;18.00;99.90
52731;DHT22;38624;53.242;6.974;2023-03-23T15:28:27;17.70;99.90
52731;DHT22;38624;53.242;6.974;2023-03-23T15:30:57;18.40;99.90
52731;DHT22;38624;53.242;6.974;2023-03-23T15:33:25;18.60;99.90
52731;DHT22;38624;53.242;6.974;2023-03-23T15:35:55;18.90;99.90
52731;DHT22;38624;53.242;6.974;2023-03-23T15:38:32;18.50;99.90
52731;DHT22;38624;53.242;6.974;2023-03-23T15:41:01;19.00;99.90
52731;DHT22;38624;53.242;6.974;2023-03-23T15:43:51;19.20;99.90
52731;DHT22;38624;53.242;6.974;2023-03-23T15:51:25;18.20;99.90
52731;DHT22;38624;53.242;6.974;2023-03-23T15:53:53;18.20;99.90
52731;DHT22;38624;53.242;6.974;2023-03-23T15:56:19;18.40;99.90
52731;DHT22;38624;53.242;6.974;2023-03-23T15:58:45;18.60;99.90
52731;DHT22;38624;53.242;6.974;2023-03-23T16:01:13;18.80;99.90
52731;DHT22;38624;53.242;6.974;2023-03-23T16:03:58;18.50;99.90
52731;DHT22;38624;53.242;6.974;2023-03-23T16:06:27;18.50;99.90
52731;DHT22;38624;53.242;6.974;2023-03-23T16:08:56;18.10;99.90
52731;DHT22;38624;53.242;6.974;2023-03-23T16:11:24;17.50;99.90
52731;DHT22;38624;53.242;6.974;2023-03-23T16:13:51;17.40;99.90
52731;DHT22;38624;53.242;6.974;2023-03-23T16:16:34;17.00;99.90
52731;DHT22;38624;53.242;6.974;2023-03-23T16:19:01;16.60;99.90
52731;DHT22;38624;53.242;6.974;2023-03-23T16:21:27;16.60;99.90
52731;DHT22;38624;53.242;6.974;2023-03-23T16:23:53;16.60;99.90
52731;DHT22;38624;53.242;6.974;2023-03-23T16:26:19;16.50;99.90
52731;DHT22;38624;53.242;6.974;2023-03-23T16:28:45;16.20;99.90
52731;DHT22;38624;53.242;6.974;2023-03-23T16:31:11;15.70;99.90
52731;DHT22;38624;53.242;6.974;2023-03-23T16:33:37;15.40;99.90
52731;DHT22;38624;53.242;6.974;2023-03-23T16:36:03;15.20;99.90
52731;DHT22;38624;53.242;6.974;2023-03-23T16:38:29;15.10;99.90
52731;DHT22;38624;53.242;6.974;2023-03-23T16:40:54;15.00;99.90
52731;DHT22;38624;53.242;6.974;2023-03-23T16:43:20;15.00;99.90
52731;DHT22;38624;53.242;6.974;2023-03-23T16:45:46;14.90;99.90
52731;DHT22;38624;53.242;6.974;2023-03-23T16:48:14;14.80;99.90
52731;DHT22;38624;53.242;6.974;2023-03-23T16:50:41;14.70;99.90
52731;DHT22;38624;53.242;6.974;2023-03-23T16:53:07;14.40;99.90
52731;DHT22;38624;53.242;6.974;2023-03-23T16:55:34;14.10;99.90
52731;DHT22;38624;53.242;6.974;2023-03-23T16:58:01;13.90;99.90
52731;DHT22;38624;53.242;6.974;2023-03-23T17:00:27;13.80;99.90
52731;DHT22;38624;53.242;6.974;2023-03-23T17:02:54;13.70;99.90
52731;DHT22;38624;53.242;6.974;2023-03-23T17:05:23;13.60;99.90
52731;DHT22;38624;53.242;6.974;2023-03-23T17:07:50;13.50;99.90
52731;DHT22;38624;53.242;6.974;2023-03-23T17:10:17;13.40;99.90
52731;DHT22;38624;53.242;6.974;2023-03-23T17:12:43;13.30;99.90
52731;DHT22;38624;53.242;6.974;2023-03-23T17:15:10;13.30;99.90
52731;DHT22;38624;53.242;6.974;2023-03-23T17:17:36;13.20;99.90
52731;DHT22;38624;53.242;6.974;2023-03-23T17:20:02;13.10;99.90
52731;DHT22;38624;53.242;6.974;2023-03-23T17:22:28;13.00;99.90
52731;DHT22;38624;53.242;6.974;2023-03-23T17:24:54;12.90;99.90
52731;DHT22;38624;53.242;6.974;2023-03-23T17:27:22;12.80;99.90
52731;DHT22;38624;53.242;6.974;2023-03-23T17:29:48;12.70;99.90
52731;DHT22;38624;53.242;6.974;2023-03-23T17:32:14;12.70;99.90
52731;DHT22;38624;53.242;6.974;2023-03-23T17:34:40;12.60;99.90
52731;DHT22;38624;53.242;6.974;2023-03-23T17:37:06;12.60;99.90
52731;DHT22;38624;53.242;6.974;2023-03-23T17:39:32;12.50;99.90
52731;DHT22;38624;53.242;6.974;2023-03-23T17:41:59;12.50;99.90
52731;DHT22;38624;53.242;6.974;2023-03-23T17:44:25;12.40;99.90
52731;DHT22;38624;53.242;6.974;2023-03-23T17:46:52;12.40;99.90
52731;DHT22;38624;53.242;6.974;2023-03-23T17:49:18;12.30;99.90
52731;DHT22;38624;53.242;6.974;2023-03-23T17:51:44;12.20;99.90
52731;DHT22;38624;53.242;6.974;2023-03-23T17:54:09;12.10;99.90
52731;DHT22;38624;53.242;6.974;2023-03-23T17:56:35;12.10;99.90
52731;DHT22;38624;53.242;6.974;2023-03-23T17:59:01;12.00;99.90
52731;DHT22;38624;53.242;6.974;2023-03-23T18:01:27;12.00;99.90